Bessemer, Michigan
Current Conditions -  °F | °C
As of 8:15 AM on Friday 24 Oct 2014 (Local Time) from KIWD Reporting Station
Clear Clear  
Wind Chill: 42°   Ceiling: Unl
Heat Index: 46°   Visibility: 8mi
Dew Point: 46°   Wind: 9mph
Humidity: 100%   Direction: 190°S
Pressure: 29.9"   Gusts: NA
Location:  46.48°N, 90.05°W
Report Text: KIWD 241315Z AUTO 19008KT 8SM CLR 08/08 A2990 RMK AO1
Loading
Personal Weather Stations






























Interactive Weather Map
Tropical Storm Tracking
New forecast layout! Learn more

10-Day Weather Forecast

Advertisements
Track Severe Weather on mobile